Arklow Spray — C6VK8 — position and weather

sailwx.info

Track history (hours):
 
Tides and Currents Weather Stations Pressure Air Temp Water Temp Dewpoint Dewpoint Depression Visibility Wind Speed Wind Dir Waves Ship Positions

Arklow Spray

Last reported at 2014-Oct-01 23:26 UTC. Time now 2014-Oct-02 16:32 UTC.
Position N 50°36' E 000°16'.

Length 90 m; draft 4.8 m.

Type: Cargo ship. MMSI: 309914000.

Date/timePositionNaut miles runAvg speedWind from/ knotsBaromVisibWave heightAir tempDewpointWater temp
2014-Oct-01 23:26N 50°36' E 000°16'910.5
2014-Oct-01 22:33N 50°38' E 000°30'1111.2
2014-Oct-01 21:33N 50°43' E 000°45'1111.4
2014-Oct-01 20:33N 50°50' E 001°00'2210.4
2014-Oct-01 18:29N 51°04' E 001°27'8 8.7
2014-Oct-01 17:33N 51°09' E 001°37'8 8.3
2014-Oct-01 16:33N 51°15' E 001°46'9 9.0
2014-Oct-01 15:32N 51°23' E 001°52'10 9.8
2014-Oct-01 14:33N 51°31' E 002°01'7110.1
2014-Oct-01 07:31N 52°04' E 003°42'8 8.2
2014-Oct-01 06:33N 52°03' E 003°55'9 9.3
2014-Oct-01 05:33N 51°58' E 004°08'8 7.8
2014-Oct-01 04:33N 51°53' E 004°18'1 0.8
2014-Oct-01 03:29N 51°53' E 004°16'0 0.0
2014-Oct-01 02:32N 51°53' E 004°16'0 0.0
2014-Oct-01 01:29N 51°53' E 004°16'0 0.0
2014-Oct-01 00:31N 51°53' E 004°16'0 0.0
2014-Sep-30 23:28N 51°53' E 004°16'0 0.0
2014-Sep-30 22:16N 51°53' E 004°16'0 0.0
2014-Sep-30 21:31N 51°53' E 004°16'0 0.0
2014-Sep-30 20:31N 51°53' E 004°16'0 0.0
2014-Sep-30 19:31N 51°53' E 004°16'0 0.0
2014-Sep-30 18:31N 51°53' E 004°16'0 0.0
2014-Sep-30 17:31N 51°53' E 004°16'0 0.0
2014-Sep-30 16:28N 51°53' E 004°16'0 0.0
2014-Sep-30 15:31N 51°53' E 004°16'0 0.0
2014-Sep-30 14:31N 51°53' E 004°16'0 0.0
2014-Sep-30 13:31N 51°53' E 004°16'1 1.1
2014-Sep-30 12:33N 51°54' E 004°17'9 8.5
2014-Sep-30 11:33N 51°59' E 004°05'9 9.3
2014-Sep-30 10:34N 52°00' E 003°50'10 7.1
2014-Sep-30 09:12N 52°09' E 003°44'0 0.2
2014-Sep-30 07:26N 52°10' E 003°44'0 0.0
2014-Sep-30 06:32N 52°10' E 003°44'0 0.0
2014-Sep-30 05:05N 52°10' E 003°44'0 0.0
2014-Sep-30 04:29N 52°10' E 003°44'0 0.0
2014-Sep-30 02:29N 52°10' E 003°44'0 0.1
2014-Sep-30 01:30N 52°09' E 003°44'0 0.1
2014-Sep-30 00:28N 52°09' E 003°44'0 0.0
2014-Sep-29 23:32N 52°09' E 003°43'0 0.1
2014-Sep-29 22:31N 52°09' E 003°44'7 6.8
2014-Sep-29 21:33N 52°16' E 003°47'1410.9
2014-Sep-29 20:17N 52°29' E 003°51'7 8.9
2014-Sep-29 19:33N 52°30' E 004°02'1010.5
2014-Sep-29 18:33N 52°30' E 004°19'1010.2
2014-Sep-29 17:33N 52°28' E 004°35'2 2.3
2014-Sep-29 16:33N 52°28' E 004°39'8 7.8
2014-Sep-29 15:34N 52°25' E 004°51'0 0.4
2014-Sep-29 14:32N 52°25' E 004°50'0 0.0
2014-Sep-29 13:29N 52°25' E 004°50'0 0.0
2014-Sep-29 12:32N 52°25' E 004°50'0 0.0
2014-Sep-29 11:26N 52°25' E 004°50'0 0.0
2014-Sep-29 10:29N 52°25' E 004°50'0 0.0
2014-Sep-29 09:32N 52°25' E 004°50'0 0.0
2014-Sep-29 08:32N 52°25' E 004°50'0 0.0
2014-Sep-29 07:32N 52°25' E 004°50'0 0.0
2014-Sep-29 06:32N 52°25' E 004°50'0 0.0
2014-Sep-29 05:32N 52°25' E 004°50'0 0.0
2014-Sep-29 04:32N 52°25' E 004°50'0 0.0
2014-Sep-29 03:29N 52°25' E 004°50'0 0.0
2014-Sep-29 02:29N 52°25' E 004°50'0 0.0
2014-Sep-29 01:29N 52°25' E 004°50'0 0.0
2014-Sep-29 00:29N 52°25' E 004°50'0 0.0
2014-Sep-28 23:32N 52°25' E 004°50'0 0.0
2014-Sep-28 22:32N 52°25' E 004°50'0 0.0
2014-Sep-28 21:32N 52°25' E 004°50'0 0.0
2014-Sep-28 20:33N 52°25' E 004°50'4 4.4
2014-Sep-28 19:34N 52°26' E 004°43'5 5.0
2014-Sep-28 18:34N 52°28' E 004°35'9 9.5
2014-Sep-28 17:33N 52°29' E 004°20'8 8.0
2014-Sep-28 16:33N 52°29' E 004°06'1 1.4
2014-Sep-28 15:30N 52°27' E 004°06'0 0.1
2014-Sep-28 14:30N 52°27' E 004°06'0 0.0
2014-Sep-28 13:30N 52°27' E 004°06'0 0.0
2014-Sep-28 12:03N 52°27' E 004°06'0 0.0
2014-Sep-28 10:18N 52°27' E 004°06'0 0.0
2014-Sep-28 09:27N 52°27' E 004°06'0 0.1
2014-Sep-28 08:27N 52°27' E 004°06'0 0.1
2014-Sep-28 07:33N 52°27' E 004°06'0 0.0
2014-Sep-28 06:33N 52°27' E 004°06'0 0.0
2014-Sep-28 05:30N 52°27' E 004°06'0 0.0
2014-Sep-28 04:33N 52°27' E 004°06'0 0.0
2014-Sep-28 03:33N 52°27' E 004°06'0 0.0
2014-Sep-28 02:33N 52°27' E 004°06'0 0.1
2014-Sep-28 01:24N 52°27' E 004°06'0 0.0
2014-Sep-28 00:24N 52°27' E 004°06'0 0.0
2014-Sep-27 23:27N 52°27' E 004°06'0 0.0
2014-Sep-27 22:21N 52°27' E 004°06'0 0.0
2014-Sep-27 21:30N 52°27' E 004°06'0 0.0
2014-Sep-27 20:33N 52°27' E 004°06'0 0.1
2014-Sep-27 19:33N 52°27' E 004°06'0 0.0
2014-Sep-27 18:27N 52°27' E 004°06'0 0.0
2014-Sep-27 17:18N 52°27' E 004°06'0 0.0
2014-Sep-27 16:21N 52°27' E 004°06'0 0.0
2014-Sep-27 15:33N 52°27' E 004°06'0 0.0
2014-Sep-27 14:33N 52°27' E 004°06'0 0.1
2014-Sep-27 13:33N 52°27' E 004°06'0 0.0
2014-Sep-27 12:29N 52°27' E 004°06'0 0.0
2014-Sep-27 11:29N 52°27' E 004°06'0 0.0
2014-Sep-27 10:18N 52°27' E 004°06'0 0.0
2014-Sep-27 08:26N 52°27' E 004°06'0 0.1
2014-Sep-27 07:11N 52°27' E 004°06'0 0.0
2014-Sep-27 06:32N 52°27' E 004°06'0 0.0
2014-Sep-27 05:26N 52°27' E 004°06'0 0.0
2014-Sep-27 04:23N 52°27' E 004°06'0 0.0
2014-Sep-27 03:32N 52°27' E 004°06'0 0.0
2014-Sep-27 02:32N 52°27' E 004°06'0 0.1
2014-Sep-27 01:17N 52°27' E 004°06'0 0.0
2014-Sep-26 23:23N 52°27' E 004°06'0 0.0
2014-Sep-26 22:05N 52°27' E 004°06'0 0.0
2014-Sep-26 20:23N 52°27' E 004°06'0 0.1
2014-Sep-26 19:08N 52°27' E 004°06'0 0.1
2014-Sep-26 18:20N 52°27' E 004°06'0 0.0
2014-Sep-26 17:29N 52°27' E 004°06'0 0.0
2014-Sep-26 16:11N 52°27' E 004°06'0 0.0
2014-Sep-26 15:26N 52°27' E 004°06'0 0.0
2014-Sep-26 14:29N 52°27' E 004°06'0 0.0
2014-Sep-26 13:32N 52°27' E 004°06'0 0.0
2014-Sep-26 12:06N 52°27' E 004°06'0 0.9
2014-Sep-26 11:33N 52°27' E 004°05'10 8.8
2014-Sep-26 10:28N 52°26' E 003°49'9 9.6
2014-Sep-26 09:32N 52°23' E 003°35'6610.8
2014-Sep-26 03:26N 51°35' E 002°22'1212.7
2014-Sep-26 02:31N 51°26' E 002°10'1212.0
2014-Sep-26 01:32N 51°15' E 002°06'1313.0
2014-Sep-26 00:33N 51°08' E 001°49'1713.6
2014-Sep-25 23:19N 50°56' E 001°30'3411.0
2014-Sep-25 20:16N 50°30' E 000°57'1211.2
2014-Sep-25 19:11N 50°26' E 000°38'710.6
2014-Sep-25 18:33N 50°25' E 000°28'  
2014-Sep-22 21:33N 54°21' W 005°12'1211.5
2014-Sep-22 20:33N 54°32' W 005°19'9 9.2
2014-Sep-22 19:33N 54°41' W 005°25'1010.0
2014-Sep-22 18:33N 54°42' W 005°42'9 7.7
2014-Sep-22 17:25N 54°37' W 005°54'0 0.0
2014-Sep-22 16:25N 54°37' W 005°54'0 0.0
2014-Sep-22 15:25N 54°37' W 005°54'0 0.0
2014-Sep-22 14:19N 54°37' W 005°54'0 0.0
2014-Sep-22 13:31N 54°37' W 005°54'0 0.0
2014-Sep-22 12:28N 54°37' W 005°54'0 0.0
2014-Sep-22 11:28N 54°37' W 005°54'0 0.0
2014-Sep-22 09:19N 54°37' W 005°54'0 0.0
2014-Sep-22 07:16N 54°37' W 005°54'0 0.0
2014-Sep-22 05:31N 54°37' W 005°54'0 0.0
2014-Sep-22 04:31N 54°37' W 005°54'0 0.0
2014-Sep-22 03:30N 54°37' W 005°54'0 0.0
2014-Sep-22 02:30N 54°37' W 005°54'0 0.0
2014-Sep-22 01:27N 54°37' W 005°54'0 0.0
2014-Sep-22 00:30N 54°37' W 005°54'  
Track history (hours):
 
Tides and Currents Weather Stations Pressure Air Temp Water Temp Dewpoint Dewpoint Depression Visibility Wind Speed Wind Dir Waves Ship Positions

Arklow Spray

Last reported at 2014-Oct-01 23:26 UTC. Time now 2014-Oct-02 16:32 UTC.
Position N 50°36' E 000°16'.

Length 90 m; draft 4.8 m.

Type: Cargo ship. MMSI: 309914000.

Date/timePositionNaut miles runAvg speedWind from/ knotsBaromVisibWave heightAir tempDewpointWater temp
2014-Oct-01 23:26N 50°36' E 000°16'910.5
2014-Oct-01 22:33N 50°38' E 000°30'1111.2
2014-Oct-01 21:33N 50°43' E 000°45'1111.4
2014-Oct-01 20:33N 50°50' E 001°00'2210.4
2014-Oct-01 18:29N 51°04' E 001°27'8 8.7
2014-Oct-01 17:33N 51°09' E 001°37'8 8.3
2014-Oct-01 16:33N 51°15' E 001°46'9 9.0
2014-Oct-01 15:32N 51°23' E 001°52'10 9.8
2014-Oct-01 14:33N 51°31' E 002°01'7110.1
2014-Oct-01 07:31N 52°04' E 003°42'8 8.2
2014-Oct-01 06:33N 52°03' E 003°55'9 9.3
2014-Oct-01 05:33N 51°58' E 004°08'8 7.8
2014-Oct-01 04:33N 51°53' E 004°18'1 0.8
2014-Oct-01 03:29N 51°53' E 004°16'0 0.0
2014-Oct-01 02:32N 51°53' E 004°16'0 0.0
2014-Oct-01 01:29N 51°53' E 004°16'0 0.0
2014-Oct-01 00:31N 51°53' E 004°16'0 0.0
2014-Sep-30 23:28N 51°53' E 004°16'0 0.0
2014-Sep-30 22:16N 51°53' E 004°16'0 0.0
2014-Sep-30 21:31N 51°53' E 004°16'0 0.0
2014-Sep-30 20:31N 51°53' E 004°16'0 0.0
2014-Sep-30 19:31N 51°53' E 004°16'0 0.0
2014-Sep-30 18:31N 51°53' E 004°16'0 0.0
2014-Sep-30 17:31N 51°53' E 004°16'0 0.0
2014-Sep-30 16:28N 51°53' E 004°16'0 0.0
2014-Sep-30 15:31N 51°53' E 004°16'0 0.0
2014-Sep-30 14:31N 51°53' E 004°16'0 0.0
2014-Sep-30 13:31N 51°53' E 004°16'1 1.1
2014-Sep-30 12:33N 51°54' E 004°17'9 8.5
2014-Sep-30 11:33N 51°59' E 004°05'9 9.3
2014-Sep-30 10:34N 52°00' E 003°50'10 7.1
2014-Sep-30 09:12N 52°09' E 003°44'0 0.2
2014-Sep-30 07:26N 52°10' E 003°44'0 0.0
2014-Sep-30 06:32N 52°10' E 003°44'0 0.0
2014-Sep-30 05:05N 52°10' E 003°44'0 0.0
2014-Sep-30 04:29N 52°10' E 003°44'0 0.0
2014-Sep-30 02:29N 52°10' E 003°44'0 0.1
2014-Sep-30 01:30N 52°09' E 003°44'0 0.1
2014-Sep-30 00:28N 52°09' E 003°44'0 0.0
2014-Sep-29 23:32N 52°09' E 003°43'0 0.1
2014-Sep-29 22:31N 52°09' E 003°44'7 6.8
2014-Sep-29 21:33N 52°16' E 003°47'1410.9
2014-Sep-29 20:17N 52°29' E 003°51'7 8.9
2014-Sep-29 19:33N 52°30' E 004°02'1010.5
2014-Sep-29 18:33N 52°30' E 004°19'1010.2
2014-Sep-29 17:33N 52°28' E 004°35'2 2.3
2014-Sep-29 16:33N 52°28' E 004°39'8 7.8
2014-Sep-29 15:34N 52°25' E 004°51'0 0.4
2014-Sep-29 14:32N 52°25' E 004°50'0 0.0
2014-Sep-29 13:29N 52°25' E 004°50'0 0.0
2014-Sep-29 12:32N 52°25' E 004°50'0 0.0
2014-Sep-29 11:26N 52°25' E 004°50'0 0.0
2014-Sep-29 10:29N 52°25' E 004°50'0 0.0
2014-Sep-29 09:32N 52°25' E 004°50'0 0.0
2014-Sep-29 08:32N 52°25' E 004°50'0 0.0
2014-Sep-29 07:32N 52°25' E 004°50'0 0.0
2014-Sep-29 06:32N 52°25' E 004°50'0 0.0
2014-Sep-29 05:32N 52°25' E 004°50'0 0.0
2014-Sep-29 04:32N 52°25' E 004°50'0 0.0
2014-Sep-29 03:29N 52°25' E 004°50'0 0.0
2014-Sep-29 02:29N 52°25' E 004°50'0 0.0
2014-Sep-29 01:29N 52°25' E 004°50'0 0.0
2014-Sep-29 00:29N 52°25' E 004°50'0 0.0
2014-Sep-28 23:32N 52°25' E 004°50'0 0.0
2014-Sep-28 22:32N 52°25' E 004°50'0 0.0
2014-Sep-28 21:32N 52°25' E 004°50'0 0.0
2014-Sep-28 20:33N 52°25' E 004°50'4 4.4
2014-Sep-28 19:34N 52°26' E 004°43'5 5.0
2014-Sep-28 18:34N 52°28' E 004°35'9 9.5
2014-Sep-28 17:33N 52°29' E 004°20'8 8.0
2014-Sep-28 16:33N 52°29' E 004°06'1 1.4
2014-Sep-28 15:30N 52°27' E 004°06'0 0.1
2014-Sep-28 14:30N 52°27' E 004°06'0 0.0
2014-Sep-28 13:30N 52°27' E 004°06'0 0.0
2014-Sep-28 12:03N 52°27' E 004°06'0 0.0
2014-Sep-28 10:18N 52°27' E 004°06'0 0.0
2014-Sep-28 09:27N 52°27' E 004°06'0 0.1
2014-Sep-28 08:27N 52°27' E 004°06'0 0.1
2014-Sep-28 07:33N 52°27' E 004°06'0 0.0
2014-Sep-28 06:33N 52°27' E 004°06'0 0.0
2014-Sep-28 05:30N 52°27' E 004°06'0 0.0
2014-Sep-28 04:33N 52°27' E 004°06'0 0.0
2014-Sep-28 03:33N 52°27' E 004°06'0 0.0
2014-Sep-28 02:33N 52°27' E 004°06'0 0.1
2014-Sep-28 01:24N 52°27' E 004°06'0 0.0
2014-Sep-28 00:24N 52°27' E 004°06'0 0.0
2014-Sep-27 23:27N 52°27' E 004°06'0 0.0
2014-Sep-27 22:21N 52°27' E 004°06'0 0.0
2014-Sep-27 21:30N 52°27' E 004°06'0 0.0
2014-Sep-27 20:33N 52°27' E 004°06'0 0.1
2014-Sep-27 19:33N 52°27' E 004°06'0 0.0
2014-Sep-27 18:27N 52°27' E 004°06'0 0.0
2014-Sep-27 17:18N 52°27' E 004°06'0 0.0
2014-Sep-27 16:21N 52°27' E 004°06'0 0.0
2014-Sep-27 15:33N 52°27' E 004°06'0 0.0
2014-Sep-27 14:33N 52°27' E 004°06'0 0.1
2014-Sep-27 13:33N 52°27' E 004°06'0 0.0
2014-Sep-27 12:29N 52°27' E 004°06'0 0.0
2014-Sep-27 11:29N 52°27' E 004°06'0 0.0
2014-Sep-27 10:18N 52°27' E 004°06'0 0.0
2014-Sep-27 08:26N 52°27' E 004°06'0 0.1
2014-Sep-27 07:11N 52°27' E 004°06'0 0.0
2014-Sep-27 06:32N 52°27' E 004°06'0 0.0
2014-Sep-27 05:26N 52°27' E 004°06'0 0.0
2014-Sep-27 04:23N 52°27' E 004°06'0 0.0
2014-Sep-27 03:32N 52°27' E 004°06'0 0.0
2014-Sep-27 02:32N 52°27' E 004°06'0 0.1
2014-Sep-27 01:17N 52°27' E 004°06'0 0.0
2014-Sep-26 23:23N 52°27' E 004°06'0 0.0
2014-Sep-26 22:05N 52°27' E 004°06'0 0.0
2014-Sep-26 20:23N 52°27' E 004°06'0 0.1
2014-Sep-26 19:08N 52°27' E 004°06'0 0.1
2014-Sep-26 18:20N 52°27' E 004°06'0 0.0
2014-Sep-26 17:29N 52°27' E 004°06'0 0.0
2014-Sep-26 16:11N 52°27' E 004°06'0 0.0
2014-Sep-26 15:26N 52°27' E 004°06'0 0.0
2014-Sep-26 14:29N 52°27' E 004°06'0 0.0
2014-Sep-26 13:32N 52°27' E 004°06'0 0.0
2014-Sep-26 12:06N 52°27' E 004°06'0 0.9
2014-Sep-26 11:33N 52°27' E 004°05'10 8.8
2014-Sep-26 10:28N 52°26' E 003°49'9 9.6
2014-Sep-26 09:32N 52°23' E 003°35'6610.8
2014-Sep-26 03:26N 51°35' E 002°22'1212.7
2014-Sep-26 02:31N 51°26' E 002°10'1212.0
2014-Sep-26 01:32N 51°15' E 002°06'1313.0
2014-Sep-26 00:33N 51°08' E 001°49'1713.6
2014-Sep-25 23:19N 50°56' E 001°30'3411.0
2014-Sep-25 20:16N 50°30' E 000°57'1211.2
2014-Sep-25 19:11N 50°26' E 000°38'710.6
2014-Sep-25 18:33N 50°25' E 000°28'  
2014-Sep-22 21:33N 54°21' W 005°12'1211.5
2014-Sep-22 20:33N 54°32' W 005°19'9 9.2
2014-Sep-22 19:33N 54°41' W 005°25'1010.0
2014-Sep-22 18:33N 54°42' W 005°42'9 7.7
2014-Sep-22 17:25N 54°37' W 005°54'0 0.0
2014-Sep-22 16:25N 54°37' W 005°54'0 0.0
2014-Sep-22 15:25N 54°37' W 005°54'0 0.0
2014-Sep-22 14:19N 54°37' W 005°54'0 0.0
2014-Sep-22 13:31N 54°37' W 005°54'0 0.0
2014-Sep-22 12:28N 54°37' W 005°54'0 0.0
2014-Sep-22 11:28N 54°37' W 005°54'0 0.0
2014-Sep-22 09:19N 54°37' W 005°54'0 0.0
2014-Sep-22 07:16N 54°37' W 005°54'0 0.0
2014-Sep-22 05:31N 54°37' W 005°54'0 0.0
2014-Sep-22 04:31N 54°37' W 005°54'0 0.0
2014-Sep-22 03:30N 54°37' W 005°54'0 0.0
2014-Sep-22 02:30N 54°37' W 005°54'0 0.0
2014-Sep-22 01:27N 54°37' W 005°54'0 0.0
2014-Sep-22 00:30N 54°37' W 005°54'  

Dump ship's entire track history